createdAt,value
2018-07-16T00:00:04.413Z,77.90
2018-07-16T00:02:31.976Z,78.20
2018-07-16T00:04:59.549Z,78.40
2018-07-16T00:07:27.147Z,79.00
2018-07-16T00:09:54.713Z,78.50
2018-07-16T00:12:22.312Z,78.50
2018-07-16T00:14:49.880Z,78.50
2018-07-16T00:17:17.452Z,78.60
2018-07-16T00:19:45.040Z,79.60
2018-07-16T00:22:12.661Z,78.90
2018-07-16T00:24:40.238Z,79.00
2018-07-16T00:27:07.806Z,79.40
2018-07-16T00:29:36.181Z,80.00
2018-07-16T00:32:03.742Z,79.90
2018-07-16T00:34:31.306Z,80.20
2018-07-16T00:36:59.674Z,81.70
2018-07-16T00:39:27.236Z,81.00
2018-07-16T00:41:54.817Z,81.50
2018-07-16T00:44:23.247Z,82.00
2018-07-16T00:46:50.758Z,82.00
2018-07-16T00:49:19.089Z,82.30
2018-07-16T00:51:46.688Z,82.30
2018-07-16T00:54:14.246Z,82.20
2018-07-16T00:56:41.814Z,82.20
2018-07-16T00:59:10.219Z,82.00
2018-07-16T01:01:37.755Z,82.30
2018-07-16T01:04:05.325Z,82.30
2018-07-16T01:06:32.949Z,82.50
2018-07-16T01:09:00.532Z,82.70
2018-07-16T01:11:28.110Z,82.80
2018-07-16T01:13:56.489Z,82.80
2018-07-16T01:16:24.822Z,82.80
2018-07-16T01:18:52.386Z,82.80
2018-07-16T01:21:19.988Z,82.80
2018-07-16T01:23:48.321Z,82.60
2018-07-16T01:26:15.885Z,82.50
2018-07-16T01:28:43.505Z,82.50
2018-07-16T01:31:11.075Z,82.50
2018-07-16T01:33:38.645Z,82.40
2018-07-16T01:36:06.244Z,82.40
2018-07-16T01:38:33.808Z,82.40
2018-07-16T01:41:01.373Z,82.50
2018-07-16T01:43:28.971Z,82.50
2018-07-16T01:45:56.535Z,82.80
2018-07-16T01:48:24.109Z,83.00
2018-07-16T01:50:51.737Z,83.20
2018-07-16T01:53:20.068Z,83.10
2018-07-16T01:55:47.639Z,83.50
2018-07-16T01:58:15.245Z,83.80
2018-07-16T02:00:43.582Z,84.60
2018-07-16T02:03:11.144Z,84.10
2018-07-16T02:05:38.754Z,84.10
2018-07-16T02:08:07.090Z,84.40
2018-07-16T02:10:34.672Z,84.30
2018-07-16T02:13:02.304Z,84.40
2018-07-16T02:15:29.877Z,84.70
2018-07-16T02:17:57.450Z,84.20
2018-07-16T02:20:25.054Z,83.60
2018-07-16T02:22:52.626Z,83.10
2018-07-16T02:25:20.202Z,83.30
2018-07-16T02:27:47.809Z,83.40
2018-07-16T02:30:15.388Z,83.60
2018-07-16T02:32:43.726Z,83.80
2018-07-16T02:35:11.350Z,83.80
2018-07-16T02:37:38.918Z,84.00
2018-07-16T02:40:06.496Z,84.00
2018-07-16T02:42:34.095Z,84.30
2018-07-16T02:45:01.662Z,84.50
2018-07-16T02:47:29.242Z,84.90
2018-07-16T02:49:56.842Z,84.90
2018-07-16T02:52:24.451Z,85.00
2018-07-16T02:54:51.982Z,84.90
2018-07-16T02:57:19.603Z,85.00
2018-07-16T02:59:47.174Z,84.90
2018-07-16T03:02:14.737Z,85.20
2018-07-16T03:04:42.337Z,84.50
2018-07-16T03:07:09.913Z,84.70
2018-07-16T03:09:37.486Z,85.00
2018-07-16T03:12:05.863Z,86.30
2018-07-16T03:14:34.198Z,85.90
2018-07-16T03:17:01.766Z,85.90
2018-07-16T03:19:29.377Z,86.20
2018-07-16T03:21:56.951Z,86.20
2018-07-16T03:24:24.526Z,86.20
2018-07-16T03:26:52.134Z,86.20
2018-07-16T03:29:19.714Z,86.30
2018-07-16T03:31:47.573Z,86.70
2018-07-16T03:34:15.177Z,87.50
2018-07-16T03:36:42.748Z,86.80
2018-07-16T03:39:10.317Z,86.80
2018-07-16T03:41:37.942Z,86.90
2018-07-16T03:44:05.510Z,87.20
2018-07-16T03:46:33.080Z,87.30
2018-07-16T03:49:00.689Z,87.40
2018-07-16T03:51:28.269Z,87.40
2018-07-16T03:53:56.617Z,87.40
2018-07-16T03:56:24.222Z,87.50
2018-07-16T03:58:52.566Z,87.50
2018-07-16T04:01:20.136Z,87.50
2018-07-16T04:03:47.745Z,87.50
2018-07-16T04:06:15.326Z,87.40
2018-07-16T04:08:42.907Z,87.50
2018-07-16T04:11:10.522Z,87.60
2018-07-16T04:13:38.094Z,88.30
2018-07-16T04:16:05.666Z,87.50
2018-07-16T04:18:33.327Z,87.60
2018-07-16T04:21:01.627Z,88.00
2018-07-16T04:23:29.197Z,88.00
2018-07-16T04:25:57.488Z,88.20
2018-07-16T04:28:25.062Z,88.40
2018-07-16T04:30:52.645Z,88.40
2018-07-16T04:33:21.003Z,88.40
2018-07-16T04:35:48.569Z,88.40
2018-07-16T04:38:16.904Z,88.30
2018-07-16T04:40:44.519Z,88.30
2018-07-16T04:43:12.853Z,88.30
2018-07-16T04:45:40.433Z,88.20
2018-07-16T04:48:08.597Z,88.30
2018-07-16T04:50:36.170Z,88.30
2018-07-16T04:53:03.752Z,88.80
2018-07-16T04:55:32.125Z,88.40
2018-07-16T04:57:59.695Z,88.30
2018-07-16T05:00:28.060Z,87.60
2018-07-16T05:02:55.627Z,87.50
2018-07-16T05:05:23.197Z,87.70
2018-07-16T05:07:51.534Z,88.10
2018-07-16T05:10:19.166Z,88.00
2018-07-16T05:12:46.741Z,88.00
2018-07-16T05:15:14.308Z,87.90
2018-07-16T05:17:41.916Z,87.70
2018-07-16T05:20:09.493Z,87.70
2018-07-16T05:22:37.837Z,87.70
2018-07-16T05:25:05.448Z,87.70
2018-07-16T05:27:33.024Z,87.70
2018-07-16T05:30:00.619Z,87.70
2018-07-16T05:32:28.419Z,87.90
2018-07-16T05:34:55.800Z,88.20
2018-07-16T05:37:23.374Z,88.50
2018-07-16T05:39:50.982Z,88.60
2018-07-16T05:42:18.556Z,88.80
2018-07-16T05:44:46.899Z,88.80
2018-07-16T05:47:14.884Z,88.70
2018-07-16T05:49:42.455Z,88.60
2018-07-16T05:52:10.028Z,88.60
2018-07-16T05:54:38.427Z,88.60
2018-07-16T05:57:05.995Z,88.50
2018-07-16T05:59:33.566Z,88.40
2018-07-16T06:02:01.228Z,88.30
2018-07-16T06:04:28.795Z,88.20
2018-07-16T06:06:56.366Z,88.00
2018-07-16T06:09:24.020Z,88.20
2018-07-16T06:11:51.590Z,88.30
2018-07-16T06:14:19.158Z,88.80
2018-07-16T06:16:46.835Z,88.20
2018-07-16T06:19:14.349Z,88.00
2018-07-16T06:21:41.923Z,88.00
2018-07-16T06:24:09.642Z,87.90
2018-07-16T06:26:37.156Z,87.90
2018-07-16T06:29:04.733Z,87.60
2018-07-16T06:31:33.018Z,87.40
2018-07-16T06:34:00.595Z,87.00
2018-07-16T06:36:28.180Z,86.90
2018-07-16T06:38:57.144Z,86.30
2018-07-16T06:41:25.014Z,86.30
2018-07-16T06:43:52.284Z,85.50
2018-07-16T06:46:19.900Z,85.30
2018-07-16T06:48:47.474Z,85.30
2018-07-16T06:51:15.051Z,85.00
2018-07-16T06:53:43.050Z,84.80
2018-07-16T06:56:11.395Z,84.20
2018-07-16T06:58:38.979Z,84.20
2018-07-16T07:01:06.602Z,83.90
2018-07-16T07:03:34.181Z,83.10
2018-07-16T07:06:01.756Z,82.50
2018-07-16T07:08:29.754Z,82.30
2018-07-16T07:10:57.322Z,82.10
2018-07-16T07:13:24.901Z,81.10
2018-07-16T07:15:52.527Z,80.50
2018-07-16T07:18:20.864Z,80.30
2018-07-16T07:20:48.444Z,80.20
2018-07-16T07:23:16.060Z,80.30
2018-07-16T07:25:43.645Z,80.00
2018-07-16T07:28:11.228Z,79.30
2018-07-16T07:30:39.408Z,78.60
2018-07-16T07:33:06.984Z,78.50
2018-07-16T07:35:34.668Z,78.70
2018-07-16T07:38:02.209Z,77.70
2018-07-16T07:40:29.780Z,77.20
2018-07-16T07:42:58.119Z,76.60
2018-07-16T07:45:25.737Z,76.50
2018-07-16T07:47:53.317Z,76.20
2018-07-16T07:50:20.887Z,75.60
2018-07-16T07:52:48.551Z,75.10
2018-07-16T07:55:16.446Z,74.90
2018-07-16T07:57:43.695Z,74.40
2018-07-16T08:00:11.322Z,73.70
2018-07-16T08:02:38.897Z,73.00
2018-07-16T08:05:06.471Z,72.60
2018-07-16T08:07:34.109Z,72.00
2018-07-16T08:10:01.679Z,71.20
2018-07-16T08:12:29.253Z,70.20
2018-07-16T08:14:56.874Z,69.20
2018-07-16T08:17:25.209Z,68.50
2018-07-16T08:19:52.775Z,68.50
2018-07-16T08:22:20.386Z,68.50
2018-07-16T08:24:47.954Z,67.30
2018-07-16T08:27:15.520Z,65.50
2018-07-16T08:29:43.130Z,65.10
2018-07-16T08:32:10.692Z,64.80
2018-07-16T08:34:38.253Z,64.60
2018-07-16T08:37:05.865Z,64.40
2018-07-16T08:39:33.426Z,63.10
2018-07-16T08:42:01.016Z,61.50
2018-07-16T08:44:29.192Z,60.80
2018-07-16T08:46:56.750Z,60.20
2018-07-16T08:49:24.314Z,59.90
2018-07-16T08:51:51.926Z,58.80
2018-07-16T08:54:20.260Z,56.70
2018-07-16T08:56:47.823Z,56.70
2018-07-16T08:59:15.451Z,56.00
2018-07-16T09:01:42.996Z,55.20
2018-07-16T09:04:10.560Z,53.60
2018-07-16T09:06:38.193Z,54.20
2018-07-16T09:09:05.756Z,54.50
2018-07-16T09:11:34.090Z,54.00
2018-07-16T09:14:01.708Z,54.00
2018-07-16T09:16:30.031Z,53.60
2018-07-16T09:18:57.588Z,53.50
2018-07-16T09:21:26.386Z,53.40
2018-07-16T09:23:53.949Z,53.70
2018-07-16T09:26:21.508Z,53.50
2018-07-16T09:28:49.901Z,52.50
2018-07-16T09:31:17.481Z,51.20
2018-07-16T09:33:45.043Z,49.70
2018-07-16T09:36:12.669Z,48.70
2018-07-16T09:38:40.236Z,49.20
2018-07-16T09:41:07.799Z,48.80
2018-07-16T09:43:35.437Z,47.80
2018-07-16T09:46:02.995Z,46.10
2018-07-16T09:48:30.550Z,45.40
2018-07-16T09:50:59.170Z,45.60
2018-07-16T09:53:26.734Z,45.40
2018-07-16T09:55:54.288Z,45.10
2018-07-16T09:58:22.372Z,44.50
2018-07-16T10:00:49.927Z,44.40
2018-07-16T10:03:17.489Z,43.30
2018-07-16T10:05:45.469Z,42.40
2018-07-16T10:08:13.027Z,41.30
2018-07-16T10:10:40.589Z,41.00
2018-07-16T10:13:08.193Z,38.80
2018-07-16T10:15:36.524Z,38.40
2018-07-16T10:18:04.086Z,38.30
2018-07-16T10:20:31.748Z,38.50
2018-07-16T10:22:59.257Z,36.50
2018-07-16T10:25:26.812Z,36.20
2018-07-16T10:27:55.201Z,36.00
2018-07-16T10:30:22.766Z,36.00
2018-07-16T10:32:51.092Z,35.50
2018-07-16T10:35:18.700Z,35.40
2018-07-16T10:37:47.034Z,33.80
2018-07-16T10:40:14.591Z,33.80
2018-07-16T10:42:42.194Z,33.50
2018-07-16T10:45:09.761Z,33.60
2018-07-16T10:47:37.323Z,34.30
2018-07-16T10:50:05.699Z,35.20
2018-07-16T10:52:34.027Z,34.90
2018-07-16T10:55:01.592Z,34.80
2018-07-16T10:57:29.205Z,34.60
2018-07-16T10:59:57.531Z,35.20
2018-07-16T11:02:25.088Z,35.20
2018-07-16T11:04:52.693Z,35.10
2018-07-16T11:07:21.018Z,35.40
2018-07-16T11:09:48.578Z,35.30
2018-07-16T11:12:16.188Z,34.70
2018-07-16T11:14:43.746Z,34.30
2018-07-16T11:17:11.308Z,34.40
2018-07-16T11:19:39.384Z,34.20
2018-07-16T11:22:06.942Z,33.90
2018-07-16T11:24:34.536Z,33.90
2018-07-16T11:27:02.546Z,33.70
2018-07-16T11:29:30.108Z,33.50
2018-07-16T11:31:57.670Z,32.60
2018-07-16T11:34:25.270Z,32.50
2018-07-16T11:36:53.623Z,32.20
2018-07-16T11:39:21.174Z,32.10
2018-07-16T11:41:49.222Z,32.10
2018-07-16T11:44:16.773Z,32.00
2018-07-16T11:46:44.338Z,31.80
2018-07-16T11:49:12.325Z,31.80
2018-07-16T11:51:39.844Z,31.80
2018-07-16T11:54:08.186Z,31.10
2018-07-16T11:56:35.789Z,31.10
2018-07-16T11:59:03.414Z,31.00
2018-07-16T12:01:30.902Z,31.30
2018-07-16T12:04:00.672Z,31.40
2018-07-16T12:06:28.239Z,31.60
2018-07-16T12:08:55.793Z,31.60
2018-07-16T12:11:24.267Z,31.40
2018-07-16T12:13:51.838Z,31.20
2018-07-16T12:16:19.396Z,31.00
2018-07-16T12:18:47.024Z,30.80
2018-07-16T12:21:14.580Z,31.00
2018-07-16T12:23:42.149Z,31.40
2018-07-16T12:26:10.264Z,30.80
2018-07-16T12:28:37.816Z,30.80
2018-07-16T12:31:05.380Z,30.40
2018-07-16T12:33:32.997Z,29.60
2018-07-16T12:36:00.566Z,29.60
2018-07-16T12:38:28.124Z,29.10
2018-07-16T12:40:56.339Z,29.20
2018-07-16T12:43:23.896Z,29.40
2018-07-16T12:45:51.454Z,29.60
2018-07-16T12:48:19.112Z,29.90
2018-07-16T12:50:46.672Z,29.70
2018-07-16T12:53:14.221Z,29.20
2018-07-16T12:55:41.827Z,29.10
2018-07-16T12:58:09.387Z,29.30
2018-07-16T13:00:36.983Z,29.60
2018-07-16T13:03:05.102Z,29.10
2018-07-16T13:05:32.898Z,29.00
2018-07-16T13:08:00.458Z,29.10
2018-07-16T13:10:28.864Z,29.30
2018-07-16T13:12:57.189Z,29.10
2018-07-16T13:15:24.744Z,29.10
2018-07-16T13:17:53.233Z,29.20
2018-07-16T13:20:20.796Z,29.00
2018-07-16T13:22:48.383Z,28.80
2018-07-16T13:25:15.964Z,28.60
2018-07-16T13:27:44.289Z,28.50
2018-07-16T13:30:11.854Z,28.50
2018-07-16T13:32:39.453Z,28.50
2018-07-16T13:35:07.770Z,29.30
2018-07-16T13:37:35.334Z,29.00
2018-07-16T13:40:03.432Z,29.00
2018-07-16T13:42:30.991Z,29.20
2018-07-16T13:44:58.548Z,29.70
2018-07-16T13:47:26.150Z,30.00
2018-07-16T13:49:54.472Z,30.10
2018-07-16T13:52:22.026Z,30.10
2018-07-16T13:54:50.315Z,30.00
2018-07-16T13:57:17.872Z,30.00
2018-07-16T13:59:45.430Z,30.40
2018-07-16T14:02:13.046Z,30.30
2018-07-16T14:04:40.588Z,30.30
2018-07-16T14:07:08.145Z,30.00
2018-07-16T14:09:35.743Z,29.90
2018-07-16T14:12:04.073Z,29.80
2018-07-16T14:14:31.633Z,29.70
2018-07-16T14:16:59.255Z,29.70
2018-07-16T14:19:27.594Z,28.60
2018-07-16T14:21:55.145Z,28.70
2018-07-16T14:24:22.754Z,28.40
2018-07-16T14:26:51.086Z,27.90
2018-07-16T14:29:18.643Z,27.90
2018-07-16T14:31:46.245Z,28.00
2018-07-16T14:34:13.795Z,28.00
2018-07-16T14:36:41.354Z,27.90
2018-07-16T14:39:08.973Z,27.70
2018-07-16T14:41:36.522Z,27.50
2018-07-16T14:44:04.081Z,27.30
2018-07-16T14:46:31.688Z,27.70
2018-07-16T14:48:59.243Z,27.40
2018-07-16T14:51:26.811Z,27.60
2018-07-16T14:53:54.451Z,27.20
2018-07-16T14:56:21.967Z,27.40
2018-07-16T14:58:50.290Z,26.70
2018-07-16T15:01:17.896Z,26.60
2018-07-16T15:03:46.225Z,26.50
2018-07-16T15:06:13.785Z,26.50
2018-07-16T15:08:41.392Z,26.40
2018-07-16T15:11:08.948Z,26.70
2018-07-16T15:13:36.503Z,26.30
2018-07-16T15:16:04.142Z,26.20
2018-07-16T15:18:31.692Z,25.40
2018-07-16T15:20:59.454Z,25.60
2018-07-16T15:23:27.444Z,25.00
2018-07-16T15:25:54.994Z,24.50
2018-07-16T15:28:22.555Z,24.50
2018-07-16T15:30:51.042Z,24.50
2018-07-16T15:33:18.601Z,24.20
2018-07-16T15:35:46.190Z,24.00
2018-07-16T15:38:13.759Z,23.60
2018-07-16T15:40:41.320Z,23.20
2018-07-16T15:43:08.878Z,22.60
2018-07-16T15:45:37.250Z,22.80
2018-07-16T15:48:04.819Z,22.70
2018-07-16T15:50:32.375Z,22.50
2018-07-16T15:53:00.486Z,22.20
2018-07-16T15:55:28.047Z,22.20
2018-07-16T15:57:55.602Z,21.90
2018-07-16T16:00:24.023Z,21.90
2018-07-16T16:02:51.656Z,21.80
2018-07-16T16:05:19.142Z,21.60
2018-07-16T16:07:46.739Z,21.60
2018-07-16T16:10:14.293Z,21.60
2018-07-16T16:12:41.853Z,21.50
2018-07-16T16:15:09.461Z,21.60
2018-07-16T16:17:37.028Z,20.80
2018-07-16T16:20:04.584Z,21.00
2018-07-16T16:22:32.195Z,21.00
2018-07-16T16:24:59.755Z,20.60
2018-07-16T16:27:27.317Z,20.60
2018-07-16T16:29:54.914Z,20.80
2018-07-16T16:32:22.470Z,20.70
2018-07-16T16:34:50.795Z,20.40
2018-07-16T16:37:18.411Z,20.40
2018-07-16T16:39:46.736Z,20.70
2018-07-16T16:42:14.301Z,20.70
2018-07-16T16:44:41.974Z,20.90
2018-07-16T16:47:09.497Z,20.70
2018-07-16T16:49:37.053Z,20.70
2018-07-16T16:52:04.658Z,21.20
2018-07-16T16:54:32.212Z,20.60
2018-07-16T16:56:59.767Z,20.20
2018-07-16T16:59:27.375Z,20.00
2018-07-16T17:01:54.930Z,20.20
2018-07-16T17:04:23.254Z,20.30
2018-07-16T17:06:51.101Z,20.30
2018-07-16T17:09:18.665Z,20.10
2018-07-16T17:11:46.237Z,19.90
2018-07-16T17:14:15.152Z,20.00
2018-07-16T17:16:42.717Z,19.80
2018-07-16T17:19:10.269Z,19.60
2018-07-16T17:21:37.873Z,19.50
2018-07-16T17:24:05.437Z,19.40
2018-07-16T17:26:34.001Z,19.70
2018-07-16T17:29:02.154Z,19.60
2018-07-16T17:31:29.715Z,19.40
2018-07-16T17:33:57.268Z,19.60
2018-07-16T17:36:24.867Z,19.60
2018-07-16T17:38:52.454Z,19.80
2018-07-16T17:41:20.010Z,19.70
2018-07-16T17:43:48.133Z,19.80
2018-07-16T17:46:15.697Z,19.90
2018-07-16T17:48:43.247Z,19.90
2018-07-16T17:51:10.897Z,20.60
2018-07-16T17:53:38.518Z,20.30
2018-07-16T17:56:06.007Z,20.30
2018-07-16T17:58:33.623Z,20.70
2018-07-16T18:01:01.171Z,21.10
2018-07-16T18:03:28.732Z,21.30
2018-07-16T18:05:57.207Z,21.40
2018-07-16T18:08:24.764Z,21.70
2018-07-16T18:10:52.322Z,22.00
2018-07-16T18:13:19.963Z,22.70
2018-07-16T18:15:47.494Z,22.50
2018-07-16T18:18:15.053Z,22.70
2018-07-16T18:20:42.658Z,23.00
2018-07-16T18:23:10.212Z,23.10
2018-07-16T18:25:37.773Z,23.10
2018-07-16T18:28:06.389Z,23.20
2018-07-16T18:30:33.969Z,23.60
2018-07-16T18:33:01.528Z,24.10
2018-07-16T18:35:29.226Z,24.70
2018-07-16T18:37:56.712Z,25.30
2018-07-16T18:40:24.276Z,25.50
2018-07-16T18:42:52.682Z,25.50
2018-07-16T18:45:20.241Z,25.60
2018-07-16T18:47:47.812Z,25.70
2018-07-16T18:50:15.429Z,25.90
2018-07-16T18:52:42.988Z,26.10
2018-07-16T18:55:10.550Z,26.60
2018-07-16T18:57:38.547Z,26.70
2018-07-16T19:00:06.105Z,27.50
2018-07-16T19:02:33.659Z,28.50
2018-07-16T19:05:01.288Z,29.30
2018-07-16T19:07:28.843Z,29.80
2018-07-16T19:09:57.172Z,31.30
2018-07-16T19:12:24.800Z,31.30
2018-07-16T19:14:52.351Z,31.60
2018-07-16T19:17:19.902Z,32.20
2018-07-16T19:19:47.503Z,32.50
2018-07-16T19:22:15.050Z,32.80
2018-07-16T19:24:42.611Z,33.20
2018-07-16T19:27:10.212Z,33.60
2018-07-16T19:29:37.776Z,34.40
2018-07-16T19:32:05.329Z,34.90
2018-07-16T19:34:32.931Z,35.40
2018-07-16T19:37:00.500Z,36.30
2018-07-16T19:39:28.056Z,36.30
2018-07-16T19:41:56.885Z,36.90
2018-07-16T19:44:24.437Z,36.80
2018-07-16T19:46:51.986Z,36.90
2018-07-16T19:49:20.390Z,37.00
2018-07-16T19:51:47.946Z,37.10
2018-07-16T19:54:15.496Z,37.50
2018-07-16T19:56:43.103Z,38.20
2018-07-16T19:59:10.650Z,38.70
2018-07-16T20:01:38.205Z,39.10
2018-07-16T20:04:05.817Z,39.40
2018-07-16T20:06:33.372Z,40.00
2018-07-16T20:09:01.688Z,40.90
2018-07-16T20:11:29.315Z,40.90
2018-07-16T20:13:57.656Z,41.60
2018-07-16T20:16:25.213Z,41.60
2018-07-16T20:18:52.813Z,42.00
2018-07-16T20:21:20.411Z,42.10
2018-07-16T20:23:47.919Z,42.40
2018-07-16T20:26:15.516Z,42.80
2018-07-16T20:28:43.075Z,43.40
2018-07-16T20:31:10.624Z,43.70
2018-07-16T20:33:39.379Z,44.50
2018-07-16T20:36:06.932Z,45.00
2018-07-16T20:38:34.488Z,44.90
2018-07-16T20:41:02.116Z,45.20
2018-07-16T20:43:29.668Z,45.60
2018-07-16T20:45:57.218Z,46.00
2018-07-16T20:48:24.819Z,46.40
2018-07-16T20:50:52.391Z,46.90
2018-07-16T20:53:19.933Z,47.40
2018-07-16T20:55:47.535Z,47.80
2018-07-16T20:58:15.083Z,49.00
2018-07-16T21:00:42.645Z,48.80
2018-07-16T21:03:10.245Z,49.20
2018-07-16T21:05:38.572Z,49.70
2018-07-16T21:08:06.130Z,49.60
2018-07-16T21:10:34.112Z,49.20
2018-07-16T21:13:01.668Z,49.60
2018-07-16T21:15:29.217Z,49.90
2018-07-16T21:17:56.833Z,50.20
2018-07-16T21:20:24.383Z,50.40
2018-07-16T21:22:51.937Z,50.90
2018-07-16T21:25:19.522Z,51.30
2018-07-16T21:27:47.842Z,52.40
2018-07-16T21:30:15.449Z,52.40
2018-07-16T21:32:43.484Z,52.70
2018-07-16T21:35:11.034Z,52.90
2018-07-16T21:37:38.586Z,53.20
2018-07-16T21:40:06.172Z,53.30
2018-07-16T21:42:33.728Z,53.70
2018-07-16T21:45:01.276Z,54.10
2018-07-16T21:47:28.861Z,54.30
2018-07-16T21:49:56.414Z,54.60
2018-07-16T21:52:23.968Z,54.90
2018-07-16T21:54:51.577Z,55.00
2018-07-16T21:57:19.897Z,55.80
2018-07-16T21:59:47.480Z,55.70
2018-07-16T22:02:15.029Z,55.90
2018-07-16T22:04:42.577Z,56.20
2018-07-16T22:07:10.128Z,56.80
2018-07-16T22:09:37.720Z,57.20
2018-07-16T22:12:05.270Z,57.50
2018-07-16T22:14:32.820Z,57.70
2018-07-16T22:17:00.803Z,57.90
2018-07-16T22:19:28.372Z,57.90
2018-07-16T22:21:55.923Z,57.30
2018-07-16T22:24:23.513Z,56.20
2018-07-16T22:26:51.078Z,55.90
2018-07-16T22:29:18.628Z,56.60
2018-07-16T22:31:46.214Z,57.30
2018-07-16T22:34:13.772Z,58.00
2018-07-16T22:36:41.330Z,58.70
2018-07-16T22:39:08.926Z,58.90
2018-07-16T22:41:36.481Z,58.60
2018-07-16T22:44:04.034Z,58.30
2018-07-16T22:46:32.402Z,58.30
2018-07-16T22:48:59.944Z,58.30
2018-07-16T22:51:27.492Z,58.20
2018-07-16T22:53:55.084Z,58.20
2018-07-16T22:56:23.411Z,58.20
2018-07-16T22:58:50.971Z,58.20
2018-07-16T23:01:18.564Z,58.20
2018-07-16T23:03:46.117Z,58.30
2018-07-16T23:06:13.673Z,58.40
2018-07-16T23:08:41.263Z,59.70
2018-07-16T23:11:08.811Z,59.10
2018-07-16T23:13:36.367Z,59.10
2018-07-16T23:16:03.957Z,59.20
2018-07-16T23:18:32.284Z,59.30
2018-07-16T23:20:59.851Z,59.20
2018-07-16T23:23:27.465Z,59.20
2018-07-16T23:25:55.785Z,59.10
2018-07-16T23:28:23.339Z,59.10
2018-07-16T23:30:50.925Z,59.10
2018-07-16T23:33:18.483Z,59.20
2018-07-16T23:35:46.033Z,59.30
2018-07-16T23:38:13.624Z,59.50
2018-07-16T23:40:41.186Z,59.80
2018-07-16T23:43:08.767Z,60.30
2018-07-16T23:45:37.140Z,60.00
2018-07-16T23:48:05.457Z,60.20
2018-07-16T23:50:33.013Z,60.20
2018-07-16T23:53:00.604Z,60.60
2018-07-16T23:55:28.183Z,61.00
2018-07-16T23:57:55.738Z,61.30
